createdAt,value
2022-10-03T00:03:51.994Z,4.50
2022-10-03T00:09:16.457Z,4.00
2022-10-03T00:14:35.593Z,4.80
2022-10-03T00:19:54.170Z,4.90
2022-10-03T00:25:22.549Z,4.20
2022-10-03T00:30:44.529Z,4.50
2022-10-03T00:36:03.157Z,4.80
2022-10-03T00:41:53.999Z,4.30
2022-10-03T00:47:19.083Z,5.40
2022-10-03T00:52:42.594Z,4.90
2022-10-03T00:58:16.740Z,4.90
2022-10-03T01:03:36.818Z,4.80
2022-10-03T01:08:58.289Z,3.60
2022-10-03T01:14:24.683Z,4.90
2022-10-03T01:20:01.267Z,4.70
2022-10-03T01:25:20.536Z,5.30
2022-10-03T01:30:28.573Z,4.60
2022-10-03T01:35:46.307Z,2.60
2022-10-03T01:41:03.348Z,3.80
2022-10-03T01:46:18.471Z,5.10
2022-10-03T01:51:31.490Z,5.10
2022-10-03T01:56:46.172Z,3.60
2022-10-03T02:02:01.615Z,4.60
2022-10-03T02:07:21.727Z,3.40
2022-10-03T02:12:35.389Z,6.10
2022-10-03T02:17:55.635Z,4.60
2022-10-03T02:23:03.135Z,5.20
2022-10-03T02:28:47.080Z,6.70
2022-10-03T02:34:17.438Z,5.10
2022-10-03T02:40:11.310Z,5.50
2022-10-03T02:45:41.316Z,4.30
2022-10-03T02:51:24.222Z,5.00
2022-10-03T02:56:59.841Z,4.30
2022-10-03T03:02:36.388Z,4.60
2022-10-03T03:08:18.734Z,4.30
2022-10-03T03:14:02.984Z,4.90
2022-10-03T03:19:26.677Z,3.50
2022-10-03T03:24:49.935Z,3.60
2022-10-03T03:30:06.864Z,5.10
2022-10-03T03:35:24.217Z,5.30
2022-10-03T03:45:54.807Z,5.20
2022-10-03T03:51:22.446Z,5.60
2022-10-03T03:56:49.376Z,4.60
2022-10-03T04:02:09.401Z,5.40
2022-10-03T04:07:28.392Z,4.50
2022-10-03T04:12:50.586Z,3.80
2022-10-03T04:18:42.345Z,4.30
2022-10-03T04:24:01.640Z,5.30
2022-10-03T04:29:32.174Z,3.30
2022-10-03T04:34:51.956Z,3.60
2022-10-03T04:40:18.835Z,4.70
2022-10-03T04:45:46.783Z,3.80
2022-10-03T04:51:06.424Z,4.70
2022-10-03T04:56:40.012Z,2.10
2022-10-03T05:01:54.639Z,4.10
2022-10-03T05:07:17.610Z,4.10
2022-10-03T05:12:46.924Z,3.60
2022-10-03T05:18:03.463Z,4.70
2022-10-03T05:23:24.831Z,4.40
2022-10-03T05:28:45.694Z,3.50
2022-10-03T05:34:02.917Z,4.90
2022-10-03T05:39:31.940Z,4.30
2022-10-03T05:44:44.881Z,4.00
2022-10-03T05:50:32.178Z,3.50
2022-10-03T05:55:54.893Z,3.00
2022-10-03T06:01:30.034Z,2.90
2022-10-03T06:06:52.275Z,2.10
2022-10-03T06:12:08.387Z,1.80
2022-10-03T06:17:43.371Z,3.00
2022-10-03T06:23:22.516Z,1.60
2022-10-03T06:29:03.274Z,3.20
2022-10-03T06:34:31.512Z,2.20
2022-10-03T06:40:15.998Z,2.50
2022-10-03T06:45:57.012Z,2.60
2022-10-03T06:51:30.647Z,2.50
2022-10-03T06:57:06.569Z,2.10
2022-10-03T07:03:05.644Z,3.70
2022-10-03T07:14:10.005Z,2.70
2022-10-03T07:19:34.388Z,2.70
2022-10-03T07:25:15.172Z,2.00
2022-10-03T07:30:23.936Z,2.30
2022-10-03T07:36:13.438Z,2.10
2022-10-03T07:41:37.014Z,3.10
2022-10-03T07:47:12.608Z,1.80
2022-10-03T07:53:01.358Z,2.10
2022-10-03T07:58:28.066Z,3.40
2022-10-03T08:04:15.389Z,2.70
2022-10-03T08:09:51.673Z,2.20
2022-10-03T08:15:07.492Z,2.30
2022-10-03T08:20:37.428Z,3.20
2022-10-03T08:26:03.946Z,3.20
2022-10-03T08:31:32.295Z,3.00
2022-10-03T08:37:09.240Z,3.30
2022-10-03T08:42:51.105Z,3.10
2022-10-03T08:48:32.774Z,2.20
2022-10-03T08:54:20.148Z,2.20
2022-10-03T09:00:06.209Z,3.20
2022-10-03T09:06:02.920Z,3.50
2022-10-03T09:11:36.954Z,2.30
2022-10-03T09:17:07.305Z,2.40
2022-10-03T09:22:35.100Z,1.80
2022-10-03T09:27:56.194Z,2.60
2022-10-03T09:33:44.993Z,2.90
2022-10-03T09:39:21.740Z,2.90
2022-10-03T09:45:01.664Z,2.80
2022-10-03T09:50:39.955Z,2.70
2022-10-03T09:56:16.409Z,1.90
2022-10-03T10:01:32.293Z,2.10
2022-10-03T10:07:03.222Z,2.10
2022-10-03T10:12:35.475Z,2.10
2022-10-03T10:18:12.625Z,2.50
2022-10-03T10:23:42.775Z,3.00
2022-10-03T10:29:17.565Z,1.60
2022-10-03T10:35:04.345Z,2.40
2022-10-03T10:40:47.191Z,1.40
2022-10-03T10:46:31.074Z,2.00
2022-10-03T10:52:21.439Z,2.10
2022-10-03T10:58:06.350Z,2.50
2022-10-03T11:03:57.221Z,1.80
2022-10-03T11:09:35.734Z,1.90
2022-10-03T11:15:20.194Z,2.10
2022-10-03T11:21:16.262Z,1.30
2022-10-03T11:26:50.285Z,1.90
2022-10-03T11:32:35.209Z,2.20
2022-10-03T11:37:48.606Z,1.90
2022-10-03T11:43:08.808Z,2.00
2022-10-03T11:48:34.456Z,1.30
2022-10-03T11:54:03.618Z,1.60
2022-10-03T11:59:46.439Z,1.80
2022-10-03T12:05:06.835Z,1.20
2022-10-03T12:10:25.327Z,1.60
2022-10-03T12:15:39.584Z,1.40
2022-10-03T12:21:20.988Z,1.80
2022-10-03T12:26:41.486Z,1.20
2022-10-03T12:32:02.857Z,2.00
2022-10-03T12:37:37.046Z,1.70
2022-10-03T12:43:00.255Z,1.50
2022-10-03T12:48:28.181Z,2.10
2022-10-03T12:53:50.284Z,1.50
2022-10-03T12:59:18.043Z,1.60
2022-10-03T13:04:40.161Z,1.70
2022-10-03T13:10:12.893Z,1.90
2022-10-03T13:15:53.858Z,2.30
2022-10-03T13:21:21.435Z,1.80
2022-10-03T13:26:51.751Z,1.30
2022-10-03T13:32:18.432Z,1.70
2022-10-03T13:37:34.034Z,2.40
2022-10-03T13:42:47.404Z,1.20
2022-10-03T13:48:02.637Z,2.20
2022-10-03T13:53:15.472Z,1.90
2022-10-03T13:58:44.227Z,1.70
2022-10-03T14:04:08.767Z,1.90
2022-10-03T14:09:39.335Z,1.10
2022-10-03T14:14:58.635Z,2.20
2022-10-03T14:20:20.373Z,2.00
2022-10-03T14:25:30.477Z,2.40
2022-10-03T14:31:05.670Z,2.00
2022-10-03T14:36:26.801Z,2.20
2022-10-03T14:41:46.400Z,1.50
2022-10-03T14:46:59.540Z,1.90
2022-10-03T14:52:10.884Z,1.70
2022-10-03T14:57:26.832Z,2.00
2022-10-03T15:02:37.907Z,1.90
2022-10-03T15:07:48.499Z,2.20
2022-10-03T15:12:59.001Z,2.00
2022-10-03T15:18:10.026Z,1.70
2022-10-03T15:23:26.696Z,1.90
2022-10-03T15:28:43.322Z,1.60
2022-10-03T15:33:56.109Z,2.20
2022-10-03T15:39:06.651Z,1.80
2022-10-03T15:44:24.663Z,1.80
2022-10-03T15:49:37.950Z,2.00
2022-10-03T15:54:56.950Z,1.50
2022-10-03T16:00:24.796Z,2.00
2022-10-03T16:05:32.817Z,2.20
2022-10-03T16:10:45.460Z,2.60
2022-10-03T16:16:05.789Z,1.70
2022-10-03T16:21:17.995Z,2.90
2022-10-03T16:26:28.942Z,2.20
2022-10-03T16:31:42.026Z,2.80
2022-10-03T16:36:59.624Z,3.30
2022-10-03T16:42:17.790Z,2.80
2022-10-03T16:47:34.898Z,3.60
2022-10-03T16:57:57.095Z,2.80
2022-10-03T17:03:17.757Z,3.60
2022-10-03T17:08:41.277Z,2.50
2022-10-03T17:13:52.535Z,2.80
2022-10-03T17:19:17.676Z,3.60
2022-10-03T17:24:47.431Z,3.70
2022-10-03T17:30:00.927Z,3.40
2022-10-03T17:35:15.729Z,4.40
2022-10-03T17:40:31.827Z,3.70
2022-10-03T17:45:46.075Z,4.00
2022-10-03T17:51:03.953Z,3.60
2022-10-03T17:56:15.203Z,3.30
2022-10-03T18:01:30.835Z,3.90
2022-10-03T18:06:53.628Z,3.80
2022-10-03T18:12:17.104Z,5.00
2022-10-03T18:17:35.482Z,3.80
2022-10-03T18:22:49.383Z,4.70
2022-10-03T18:28:20.606Z,4.20
2022-10-03T18:33:33.568Z,3.30
2022-10-03T18:38:45.751Z,3.60
2022-10-03T18:44:00.398Z,4.10
2022-10-03T18:49:35.119Z,2.80
2022-10-03T18:55:03.013Z,3.00
2022-10-03T19:00:19.745Z,2.70
2022-10-03T19:05:32.018Z,2.40
2022-10-03T19:10:43.975Z,2.40
2022-10-03T19:16:21.386Z,2.20
2022-10-03T19:21:29.528Z,1.90
2022-10-03T19:26:38.771Z,2.70
2022-10-03T19:31:57.490Z,2.50
2022-10-03T19:37:08.459Z,2.00
2022-10-03T19:42:30.951Z,2.00
2022-10-03T19:47:46.941Z,2.20
2022-10-03T19:52:55.241Z,2.80
2022-10-03T19:58:05.952Z,3.40
2022-10-03T20:03:23.489Z,2.70
2022-10-03T20:08:38.486Z,3.40
2022-10-03T20:13:48.084Z,3.80
2022-10-03T20:19:01.700Z,3.60
2022-10-03T20:24:20.120Z,3.10
2022-10-03T20:29:32.277Z,5.30
2022-10-03T20:34:42.151Z,4.20
2022-10-03T20:39:53.235Z,3.40
2022-10-03T20:45:08.130Z,4.00
2022-10-03T20:50:24.954Z,3.00
2022-10-03T20:55:37.579Z,3.80
2022-10-03T21:00:49.635Z,2.70
2022-10-03T21:05:59.552Z,1.90
2022-10-03T21:11:19.960Z,3.40
2022-10-03T21:16:31.658Z,2.70
2022-10-03T21:21:43.545Z,3.00
2022-10-03T21:26:59.070Z,3.40
2022-10-03T21:32:25.408Z,3.00
2022-10-03T21:37:43.825Z,4.40
2022-10-03T21:43:01.420Z,4.30
2022-10-03T21:48:18.211Z,4.10
2022-10-03T21:53:40.034Z,3.80
2022-10-03T21:59:12.584Z,4.40
2022-10-03T22:04:29.682Z,4.20
2022-10-03T22:09:45.093Z,3.50
2022-10-03T22:15:00.648Z,4.70
2022-10-03T22:20:17.534Z,4.30
2022-10-03T22:25:40.460Z,3.60
2022-10-03T22:30:58.034Z,5.70
2022-10-03T22:36:09.438Z,4.70
2022-10-03T22:41:21.413Z,3.80
2022-10-03T22:46:32.551Z,5.20
2022-10-03T22:51:41.959Z,4.50
2022-10-03T22:56:54.189Z,5.30
2022-10-03T23:02:09.069Z,3.40
2022-10-03T23:07:31.005Z,4.20
2022-10-03T23:12:42.873Z,5.10
2022-10-03T23:18:02.783Z,3.40
2022-10-03T23:23:16.664Z,4.30
2022-10-03T23:28:31.600Z,4.60
2022-10-03T23:33:53.801Z,4.10
2022-10-03T23:39:03.877Z,4.00
2022-10-03T23:44:30.667Z,5.90
2022-10-03T23:49:40.126Z,5.80
2022-10-03T23:54:49.455Z,5.00
2022-10-03T23:59:57.159Z,4.60
